sensor_id;sensor_type;location;lat;lon;timestamp;P1;durP1;ratioP1;P2;durP2;ratioP2
7661;SDS011;30314;48.184;11.510;2024-01-15T00:00:04;10.03;;;3.60;;
7661;SDS011;30314;48.184;11.510;2024-01-15T00:02:35;8.80;;;3.50;;
7661;SDS011;30314;48.184;11.510;2024-01-15T00:05:02;6.90;;;3.50;;
7661;SDS011;30314;48.184;11.510;2024-01-15T00:07:29;12.70;;;4.73;;
7661;SDS011;30314;48.184;11.510;2024-01-15T00:09:55;9.07;;;3.83;;
7661;SDS011;30314;48.184;11.510;2024-01-15T00:12:22;10.20;;;3.83;;
7661;SDS011;30314;48.184;11.510;2024-01-15T00:14:48;8.30;;;3.50;;
7661;SDS011;30314;48.184;11.510;2024-01-15T00:17:15;11.13;;;4.63;;
7661;SDS011;30314;48.184;11.510;2024-01-15T00:19:41;8.40;;;3.40;;
7661;SDS011;30314;48.184;11.510;2024-01-15T00:22:08;9.00;;;4.20;;
7661;SDS011;30314;48.184;11.510;2024-01-15T00:27:27;8.40;;;4.43;;
7661;SDS011;30314;48.184;11.510;2024-01-15T00:29:53;7.83;;;4.07;;
7661;SDS011;30314;48.184;11.510;2024-01-15T00:32:20;13.33;;;4.47;;
7661;SDS011;30314;48.184;11.510;2024-01-15T00:34:47;15.20;;;5.13;;
7661;SDS011;30314;48.184;11.510;2024-01-15T00:40:04;9.13;;;3.90;;
7661;SDS011;30314;48.184;11.510;2024-01-15T00:42:32;8.10;;;3.50;;
7661;SDS011;30314;48.184;11.510;2024-01-15T00:44:58;13.30;;;4.63;;
7661;SDS011;30314;48.184;11.510;2024-01-15T00:47:25;11.93;;;5.17;;
7661;SDS011;30314;48.184;11.510;2024-01-15T00:49:52;10.63;;;5.53;;
7661;SDS011;30314;48.184;11.510;2024-01-15T00:52:18;14.20;;;6.27;;
7661;SDS011;30314;48.184;11.510;2024-01-15T00:54:45;10.33;;;6.17;;
7661;SDS011;30314;48.184;11.510;2024-01-15T00:57:11;11.13;;;5.60;;
7661;SDS011;30314;48.184;11.510;2024-01-15T00:59:39;16.17;;;6.80;;
7661;SDS011;30314;48.184;11.510;2024-01-15T01:02:06;14.30;;;7.30;;
7661;SDS011;30314;48.184;11.510;2024-01-15T01:04:33;14.13;;;6.83;;
7661;SDS011;30314;48.184;11.510;2024-01-15T01:07:00;15.60;;;6.90;;
7661;SDS011;30314;48.184;11.510;2024-01-15T01:09:26;16.20;;;7.80;;
7661;SDS011;30314;48.184;11.510;2024-01-15T01:11:56;15.50;;;6.67;;
7661;SDS011;30314;48.184;11.510;2024-01-15T01:14:22;12.57;;;6.13;;
7661;SDS011;30314;48.184;11.510;2024-01-15T01:16:49;15.63;;;6.60;;
7661;SDS011;30314;48.184;11.510;2024-01-15T01:19:16;16.70;;;7.73;;
7661;SDS011;30314;48.184;11.510;2024-01-15T01:21:43;13.33;;;6.37;;
7661;SDS011;30314;48.184;11.510;2024-01-15T01:24:09;12.80;;;5.87;;
7661;SDS011;30314;48.184;11.510;2024-01-15T01:26:36;14.40;;;6.40;;
7661;SDS011;30314;48.184;11.510;2024-01-15T01:29:03;15.30;;;5.80;;
7661;SDS011;30314;48.184;11.510;2024-01-15T01:31:29;15.67;;;6.83;;
7661;SDS011;30314;48.184;11.510;2024-01-15T01:33:56;18.40;;;6.50;;
7661;SDS011;30314;48.184;11.510;2024-01-15T01:36:23;14.70;;;5.43;;
7661;SDS011;30314;48.184;11.510;2024-01-15T01:38:49;12.90;;;6.27;;
7661;SDS011;30314;48.184;11.510;2024-01-15T01:41:16;11.30;;;5.10;;
7661;SDS011;30314;48.184;11.510;2024-01-15T01:43:43;11.30;;;5.00;;
7661;SDS011;30314;48.184;11.510;2024-01-15T01:46:09;10.90;;;4.80;;
7661;SDS011;30314;48.184;11.510;2024-01-15T01:48:37;11.93;;;5.20;;
7661;SDS011;30314;48.184;11.510;2024-01-15T01:51:04;13.90;;;5.97;;
7661;SDS011;30314;48.184;11.510;2024-01-15T01:53:31;12.50;;;5.93;;
7661;SDS011;30314;48.184;11.510;2024-01-15T01:56:01;15.37;;;5.17;;
7661;SDS011;30314;48.184;11.510;2024-01-15T01:58:29;9.00;;;4.17;;
7661;SDS011;30314;48.184;11.510;2024-01-15T02:00:58;9.70;;;4.67;;
7661;SDS011;30314;48.184;11.510;2024-01-15T02:03:27;14.77;;;5.70;;
7661;SDS011;30314;48.184;11.510;2024-01-15T02:05:54;9.83;;;5.63;;
7661;SDS011;30314;48.184;11.510;2024-01-15T02:08:22;9.40;;;4.20;;
7661;SDS011;30314;48.184;11.510;2024-01-15T02:10:49;9.73;;;4.50;;
7661;SDS011;30314;48.184;11.510;2024-01-15T02:13:17;15.90;;;5.57;;
7661;SDS011;30314;48.184;11.510;2024-01-15T02:15:44;12.93;;;5.03;;
7661;SDS011;30314;48.184;11.510;2024-01-15T02:18:11;16.40;;;5.90;;
7661;SDS011;30314;48.184;11.510;2024-01-15T02:20:38;11.50;;;5.57;;
7661;SDS011;30314;48.184;11.510;2024-01-15T02:25:45;14.23;;;4.93;;
7661;SDS011;30314;48.184;11.510;2024-01-15T02:28:14;10.73;;;4.67;;
7661;SDS011;30314;48.184;11.510;2024-01-15T02:30:42;12.97;;;5.97;;
7661;SDS011;30314;48.184;11.510;2024-01-15T02:33:10;12.87;;;6.07;;
7661;SDS011;30314;48.184;11.510;2024-01-15T02:35:37;11.47;;;4.20;;
7661;SDS011;30314;48.184;11.510;2024-01-15T02:38:05;12.37;;;5.40;;
7661;SDS011;30314;48.184;11.510;2024-01-15T02:40:32;13.73;;;5.60;;
7661;SDS011;30314;48.184;11.510;2024-01-15T02:42:58;13.23;;;6.73;;
7661;SDS011;30314;48.184;11.510;2024-01-15T02:45:25;14.07;;;5.70;;
7661;SDS011;30314;48.184;11.510;2024-01-15T02:47:52;13.10;;;6.10;;
7661;SDS011;30314;48.184;11.510;2024-01-15T02:50:19;12.20;;;6.07;;
7661;SDS011;30314;48.184;11.510;2024-01-15T02:52:45;8.93;;;4.63;;
7661;SDS011;30314;48.184;11.510;2024-01-15T02:55:12;16.40;;;5.80;;
7661;SDS011;30314;48.184;11.510;2024-01-15T02:57:38;13.03;;;5.50;;
7661;SDS011;30314;48.184;11.510;2024-01-15T03:00:05;20.93;;;6.33;;
7661;SDS011;30314;48.184;11.510;2024-01-15T03:02:36;9.37;;;4.37;;
7661;SDS011;30314;48.184;11.510;2024-01-15T03:05:09;10.70;;;4.67;;
7661;SDS011;30314;48.184;11.510;2024-01-15T03:07:36;8.43;;;4.30;;
7661;SDS011;30314;48.184;11.510;2024-01-15T03:10:02;14.13;;;5.47;;
7661;SDS011;30314;48.184;11.510;2024-01-15T03:12:29;12.17;;;5.40;;
7661;SDS011;30314;48.184;11.510;2024-01-15T03:14:56;12.80;;;5.70;;
7661;SDS011;30314;48.184;11.510;2024-01-15T03:17:22;9.90;;;4.97;;
7661;SDS011;30314;48.184;11.510;2024-01-15T03:19:49;11.80;;;5.47;;
7661;SDS011;30314;48.184;11.510;2024-01-15T03:22:16;10.90;;;4.83;;
7661;SDS011;30314;48.184;11.510;2024-01-15T03:24:43;13.73;;;5.37;;
7661;SDS011;30314;48.184;11.510;2024-01-15T03:27:10;13.27;;;5.90;;
7661;SDS011;30314;48.184;11.510;2024-01-15T03:29:37;9.90;;;5.23;;
7661;SDS011;30314;48.184;11.510;2024-01-15T03:32:03;13.50;;;6.17;;
7661;SDS011;30314;48.184;11.510;2024-01-15T03:34:30;11.27;;;5.50;;
7661;SDS011;30314;48.184;11.510;2024-01-15T03:36:57;10.27;;;5.37;;
7661;SDS011;30314;48.184;11.510;2024-01-15T03:39:25;9.27;;;4.80;;
7661;SDS011;30314;48.184;11.510;2024-01-15T03:41:51;9.07;;;4.33;;
7661;SDS011;30314;48.184;11.510;2024-01-15T03:44:18;13.57;;;5.80;;
7661;SDS011;30314;48.184;11.510;2024-01-15T03:46:44;10.00;;;5.07;;
7661;SDS011;30314;48.184;11.510;2024-01-15T03:49:11;11.43;;;5.50;;
7661;SDS011;30314;48.184;11.510;2024-01-15T03:51:38;12.03;;;5.00;;
7661;SDS011;30314;48.184;11.510;2024-01-15T03:54:04;11.03;;;5.20;;
7661;SDS011;30314;48.184;11.510;2024-01-15T03:56:31;14.17;;;5.73;;
7661;SDS011;30314;48.184;11.510;2024-01-15T03:58:58;14.10;;;5.63;;
7661;SDS011;30314;48.184;11.510;2024-01-15T04:01:24;15.07;;;5.50;;
7661;SDS011;30314;48.184;11.510;2024-01-15T04:03:51;15.17;;;5.53;;
7661;SDS011;30314;48.184;11.510;2024-01-15T04:06:17;11.67;;;5.57;;
7661;SDS011;30314;48.184;11.510;2024-01-15T04:08:44;15.10;;;6.03;;
7661;SDS011;30314;48.184;11.510;2024-01-15T04:11:11;11.97;;;5.33;;
7661;SDS011;30314;48.184;11.510;2024-01-15T04:13:37;10.27;;;5.20;;
7661;SDS011;30314;48.184;11.510;2024-01-15T04:16:06;12.23;;;5.63;;
7661;SDS011;30314;48.184;11.510;2024-01-15T04:18:33;15.37;;;6.17;;
7661;SDS011;30314;48.184;11.510;2024-01-15T04:20:59;12.57;;;6.20;;
7661;SDS011;30314;48.184;11.510;2024-01-15T04:23:26;14.87;;;5.60;;
7661;SDS011;30314;48.184;11.510;2024-01-15T04:25:52;12.50;;;5.67;;
7661;SDS011;30314;48.184;11.510;2024-01-15T04:28:19;12.33;;;5.50;;
7661;SDS011;30314;48.184;11.510;2024-01-15T04:30:45;13.73;;;5.80;;
7661;SDS011;30314;48.184;11.510;2024-01-15T04:33:12;11.27;;;4.87;;
7661;SDS011;30314;48.184;11.510;2024-01-15T04:35:39;13.27;;;5.27;;
7661;SDS011;30314;48.184;11.510;2024-01-15T04:38:05;13.27;;;5.23;;
7661;SDS011;30314;48.184;11.510;2024-01-15T04:40:32;18.17;;;6.13;;
7661;SDS011;30314;48.184;11.510;2024-01-15T04:42:58;11.57;;;4.63;;
7661;SDS011;30314;48.184;11.510;2024-01-15T04:45:25;13.93;;;5.20;;
7661;SDS011;30314;48.184;11.510;2024-01-15T04:47:55;16.90;;;6.13;;
7661;SDS011;30314;48.184;11.510;2024-01-15T04:50:24;11.00;;;4.90;;
7661;SDS011;30314;48.184;11.510;2024-01-15T04:52:51;11.67;;;5.30;;
7661;SDS011;30314;48.184;11.510;2024-01-15T04:55:18;10.33;;;4.37;;
7661;SDS011;30314;48.184;11.510;2024-01-15T04:57:45;14.80;;;6.13;;
7661;SDS011;30314;48.184;11.510;2024-01-15T05:00:11;16.77;;;6.00;;
7661;SDS011;30314;48.184;11.510;2024-01-15T05:02:39;10.10;;;4.80;;
7661;SDS011;30314;48.184;11.510;2024-01-15T05:05:06;10.20;;;4.20;;
7661;SDS011;30314;48.184;11.510;2024-01-15T05:07:33;14.97;;;5.53;;
7661;SDS011;30314;48.184;11.510;2024-01-15T05:10:00;13.23;;;5.77;;
7661;SDS011;30314;48.184;11.510;2024-01-15T05:12:27;14.17;;;4.60;;
7661;SDS011;30314;48.184;11.510;2024-01-15T05:14:53;10.13;;;5.63;;
7661;SDS011;30314;48.184;11.510;2024-01-15T05:17:20;9.93;;;4.63;;
7661;SDS011;30314;48.184;11.510;2024-01-15T05:19:47;13.33;;;5.30;;
7661;SDS011;30314;48.184;11.510;2024-01-15T05:22:13;11.47;;;4.80;;
7661;SDS011;30314;48.184;11.510;2024-01-15T05:24:40;11.90;;;5.30;;
7661;SDS011;30314;48.184;11.510;2024-01-15T05:27:06;10.20;;;4.83;;
7661;SDS011;30314;48.184;11.510;2024-01-15T05:29:33;11.23;;;4.80;;
7661;SDS011;30314;48.184;11.510;2024-01-15T05:32:00;13.57;;;5.63;;
7661;SDS011;30314;48.184;11.510;2024-01-15T05:34:28;14.90;;;5.33;;
7661;SDS011;30314;48.184;11.510;2024-01-15T05:36:55;11.20;;;4.47;;
7661;SDS011;30314;48.184;11.510;2024-01-15T05:39:21;11.73;;;4.90;;
7661;SDS011;30314;48.184;11.510;2024-01-15T05:41:49;16.00;;;5.30;;
7661;SDS011;30314;48.184;11.510;2024-01-15T05:44:16;8.57;;;4.00;;
7661;SDS011;30314;48.184;11.510;2024-01-15T05:46:43;11.43;;;4.50;;
7661;SDS011;30314;48.184;11.510;2024-01-15T05:49:09;9.47;;;4.13;;
7661;SDS011;30314;48.184;11.510;2024-01-15T05:51:36;10.97;;;4.30;;
7661;SDS011;30314;48.184;11.510;2024-01-15T05:54:03;12.40;;;5.10;;
7661;SDS011;30314;48.184;11.510;2024-01-15T05:56:30;11.20;;;4.60;;
7661;SDS011;30314;48.184;11.510;2024-01-15T05:58:56;10.43;;;3.93;;
7661;SDS011;30314;48.184;11.510;2024-01-15T06:01:23;10.27;;;5.00;;
7661;SDS011;30314;48.184;11.510;2024-01-15T06:03:49;10.23;;;4.37;;
7661;SDS011;30314;48.184;11.510;2024-01-15T06:06:16;10.40;;;4.07;;
7661;SDS011;30314;48.184;11.510;2024-01-15T06:08:43;11.97;;;4.60;;
7661;SDS011;30314;48.184;11.510;2024-01-15T06:11:09;13.97;;;4.97;;
7661;SDS011;30314;48.184;11.510;2024-01-15T06:13:36;9.90;;;4.17;;
7661;SDS011;30314;48.184;11.510;2024-01-15T06:16:02;8.63;;;3.67;;
7661;SDS011;30314;48.184;11.510;2024-01-15T06:18:37;12.13;;;4.13;;
7661;SDS011;30314;48.184;11.510;2024-01-15T06:21:05;8.33;;;3.63;;
7661;SDS011;30314;48.184;11.510;2024-01-15T06:23:31;9.57;;;4.00;;
7661;SDS011;30314;48.184;11.510;2024-01-15T06:25:58;10.80;;;4.80;;
7661;SDS011;30314;48.184;11.510;2024-01-15T06:28:25;8.97;;;3.67;;
7661;SDS011;30314;48.184;11.510;2024-01-15T06:30:52;9.00;;;4.17;;
7661;SDS011;30314;48.184;11.510;2024-01-15T06:33:18;11.17;;;4.77;;
7661;SDS011;30314;48.184;11.510;2024-01-15T06:35:45;7.53;;;3.60;;
7661;SDS011;30314;48.184;11.510;2024-01-15T06:38:12;11.03;;;4.40;;
7661;SDS011;30314;48.184;11.510;2024-01-15T06:40:38;13.30;;;4.50;;
7661;SDS011;30314;48.184;11.510;2024-01-15T06:43:07;10.90;;;4.90;;
7661;SDS011;30314;48.184;11.510;2024-01-15T06:45:35;7.70;;;4.00;;
7661;SDS011;30314;48.184;11.510;2024-01-15T06:48:01;7.73;;;3.83;;
7661;SDS011;30314;48.184;11.510;2024-01-15T06:50:28;9.50;;;3.80;;
7661;SDS011;30314;48.184;11.510;2024-01-15T06:52:54;12.03;;;4.33;;
7661;SDS011;30314;48.184;11.510;2024-01-15T06:55:21;10.80;;;4.50;;
7661;SDS011;30314;48.184;11.510;2024-01-15T06:57:47;11.17;;;4.53;;
7661;SDS011;30314;48.184;11.510;2024-01-15T07:00:14;10.50;;;3.77;;
7661;SDS011;30314;48.184;11.510;2024-01-15T07:02:42;8.63;;;4.10;;
7661;SDS011;30314;48.184;11.510;2024-01-15T07:05:08;8.87;;;4.20;;
7661;SDS011;30314;48.184;11.510;2024-01-15T07:07:36;10.10;;;4.63;;
7661;SDS011;30314;48.184;11.510;2024-01-15T07:10:03;10.43;;;3.90;;
7661;SDS011;30314;48.184;11.510;2024-01-15T07:12:30;10.83;;;5.00;;
7661;SDS011;30314;48.184;11.510;2024-01-15T07:14:57;9.03;;;4.17;;
7661;SDS011;30314;48.184;11.510;2024-01-15T07:17:23;14.33;;;4.67;;
7661;SDS011;30314;48.184;11.510;2024-01-15T07:19:50;9.77;;;4.20;;
7661;SDS011;30314;48.184;11.510;2024-01-15T07:22:16;9.57;;;4.77;;
7661;SDS011;30314;48.184;11.510;2024-01-15T07:24:43;11.70;;;4.50;;
7661;SDS011;30314;48.184;11.510;2024-01-15T07:27:10;11.10;;;4.60;;
7661;SDS011;30314;48.184;11.510;2024-01-15T07:29:37;8.73;;;5.03;;
7661;SDS011;30314;48.184;11.510;2024-01-15T07:32:03;8.83;;;4.70;;
7661;SDS011;30314;48.184;11.510;2024-01-15T07:34:30;10.73;;;4.57;;
7661;SDS011;30314;48.184;11.510;2024-01-15T07:36:57;9.50;;;4.33;;
7661;SDS011;30314;48.184;11.510;2024-01-15T07:39:24;10.77;;;4.77;;
7661;SDS011;30314;48.184;11.510;2024-01-15T07:41:51;9.40;;;4.60;;
7661;SDS011;30314;48.184;11.510;2024-01-15T07:44:18;10.30;;;4.30;;
7661;SDS011;30314;48.184;11.510;2024-01-15T07:46:45;12.87;;;4.90;;
7661;SDS011;30314;48.184;11.510;2024-01-15T07:49:15;11.13;;;4.73;;
7661;SDS011;30314;48.184;11.510;2024-01-15T07:51:43;9.83;;;4.63;;
7661;SDS011;30314;48.184;11.510;2024-01-15T07:54:10;16.67;;;4.93;;
7661;SDS011;30314;48.184;11.510;2024-01-15T07:56:53;13.20;;;5.00;;
7661;SDS011;30314;48.184;11.510;2024-01-15T07:59:21;10.80;;;4.17;;
7661;SDS011;30314;48.184;11.510;2024-01-15T08:01:48;14.13;;;5.47;;
7661;SDS011;30314;48.184;11.510;2024-01-15T08:04:14;9.13;;;4.43;;
7661;SDS011;30314;48.184;11.510;2024-01-15T08:06:41;11.67;;;4.87;;
7661;SDS011;30314;48.184;11.510;2024-01-15T08:09:08;10.20;;;4.30;;
7661;SDS011;30314;48.184;11.510;2024-01-15T08:11:35;10.20;;;5.00;;
7661;SDS011;30314;48.184;11.510;2024-01-15T08:14:01;11.57;;;4.33;;
7661;SDS011;30314;48.184;11.510;2024-01-15T08:16:28;16.70;;;4.80;;
7661;SDS011;30314;48.184;11.510;2024-01-15T08:18:55;8.30;;;4.50;;
7661;SDS011;30314;48.184;11.510;2024-01-15T08:21:21;11.07;;;5.27;;
7661;SDS011;30314;48.184;11.510;2024-01-15T08:23:48;7.60;;;4.20;;
7661;SDS011;30314;48.184;11.510;2024-01-15T08:26:15;10.13;;;4.63;;
7661;SDS011;30314;48.184;11.510;2024-01-15T08:28:42;12.60;;;5.00;;
7661;SDS011;30314;48.184;11.510;2024-01-15T08:31:08;9.30;;;5.03;;
7661;SDS011;30314;48.184;11.510;2024-01-15T08:33:36;12.97;;;5.17;;
7661;SDS011;30314;48.184;11.510;2024-01-15T08:36:02;9.73;;;3.97;;
7661;SDS011;30314;48.184;11.510;2024-01-15T08:38:29;8.87;;;3.60;;
7661;SDS011;30314;48.184;11.510;2024-01-15T08:40:56;9.93;;;4.07;;
7661;SDS011;30314;48.184;11.510;2024-01-15T08:43:25;9.37;;;4.93;;
7661;SDS011;30314;48.184;11.510;2024-01-15T08:45:51;9.00;;;4.20;;
7661;SDS011;30314;48.184;11.510;2024-01-15T08:48:18;10.57;;;4.20;;
7661;SDS011;30314;48.184;11.510;2024-01-15T08:50:45;10.97;;;4.13;;
7661;SDS011;30314;48.184;11.510;2024-01-15T08:53:12;9.57;;;4.67;;
7661;SDS011;30314;48.184;11.510;2024-01-15T08:55:39;11.50;;;4.50;;
7661;SDS011;30314;48.184;11.510;2024-01-15T08:58:06;8.87;;;4.10;;
7661;SDS011;30314;48.184;11.510;2024-01-15T09:00:32;13.93;;;4.20;;
7661;SDS011;30314;48.184;11.510;2024-01-15T09:02:59;10.97;;;4.67;;
7661;SDS011;30314;48.184;11.510;2024-01-15T09:05:26;12.83;;;4.90;;
7661;SDS011;30314;48.184;11.510;2024-01-15T09:07:52;8.57;;;3.97;;
7661;SDS011;30314;48.184;11.510;2024-01-15T09:10:19;9.40;;;4.67;;
7661;SDS011;30314;48.184;11.510;2024-01-15T09:12:46;12.13;;;3.97;;
7661;SDS011;30314;48.184;11.510;2024-01-15T09:15:13;15.97;;;5.67;;
7661;SDS011;30314;48.184;11.510;2024-01-15T09:17:40;11.97;;;5.83;;
7661;SDS011;30314;48.184;11.510;2024-01-15T09:20:07;7.60;;;4.13;;
7661;SDS011;30314;48.184;11.510;2024-01-15T09:22:35;14.90;;;4.90;;
7661;SDS011;30314;48.184;11.510;2024-01-15T09:25:04;9.97;;;3.70;;
7661;SDS011;30314;48.184;11.510;2024-01-15T09:27:31;12.60;;;5.20;;
7661;SDS011;30314;48.184;11.510;2024-01-15T09:29:58;9.50;;;4.90;;
7661;SDS011;30314;48.184;11.510;2024-01-15T09:32:25;10.53;;;4.30;;
7661;SDS011;30314;48.184;11.510;2024-01-15T09:34:52;7.37;;;3.90;;
7661;SDS011;30314;48.184;11.510;2024-01-15T09:37:19;10.67;;;4.73;;
7661;SDS011;30314;48.184;11.510;2024-01-15T09:40:05;13.97;;;5.03;;
7661;SDS011;30314;48.184;11.510;2024-01-15T09:42:34;8.40;;;3.83;;
7661;SDS011;30314;48.184;11.510;2024-01-15T09:45:01;10.93;;;4.70;;
7661;SDS011;30314;48.184;11.510;2024-01-15T09:47:29;9.63;;;4.63;;
7661;SDS011;30314;48.184;11.510;2024-01-15T09:49:56;10.03;;;4.63;;
7661;SDS011;30314;48.184;11.510;2024-01-15T09:52:24;9.03;;;4.60;;
7661;SDS011;30314;48.184;11.510;2024-01-15T09:54:51;8.63;;;3.53;;
7661;SDS011;30314;48.184;11.510;2024-01-15T09:57:18;9.93;;;4.80;;
7661;SDS011;30314;48.184;11.510;2024-01-15T09:59:45;7.00;;;3.43;;
7661;SDS011;30314;48.184;11.510;2024-01-15T10:02:13;7.40;;;3.77;;
7661;SDS011;30314;48.184;11.510;2024-01-15T10:04:44;7.60;;;3.33;;
7661;SDS011;30314;48.184;11.510;2024-01-15T10:07:14;9.50;;;3.67;;
7661;SDS011;30314;48.184;11.510;2024-01-15T10:09:46;9.73;;;3.77;;
7661;SDS011;30314;48.184;11.510;2024-01-15T10:12:12;8.70;;;3.70;;
7661;SDS011;30314;48.184;11.510;2024-01-15T10:14:40;7.37;;;3.43;;
7661;SDS011;30314;48.184;11.510;2024-01-15T10:17:12;6.43;;;3.00;;
7661;SDS011;30314;48.184;11.510;2024-01-15T10:19:42;7.37;;;3.70;;
7661;SDS011;30314;48.184;11.510;2024-01-15T10:22:14;5.60;;;2.80;;
7661;SDS011;30314;48.184;11.510;2024-01-15T10:24:41;7.20;;;3.80;;
7661;SDS011;30314;48.184;11.510;2024-01-15T10:27:08;7.73;;;2.93;;
7661;SDS011;30314;48.184;11.510;2024-01-15T10:29:36;11.23;;;4.03;;
7661;SDS011;30314;48.184;11.510;2024-01-15T10:32:06;5.67;;;2.77;;
7661;SDS011;30314;48.184;11.510;2024-01-15T10:34:37;7.57;;;3.30;;
7661;SDS011;30314;48.184;11.510;2024-01-15T10:37:09;7.40;;;3.97;;
7661;SDS011;30314;48.184;11.510;2024-01-15T10:39:36;6.47;;;3.40;;
7661;SDS011;30314;48.184;11.510;2024-01-15T10:42:03;7.50;;;3.40;;
7661;SDS011;30314;48.184;11.510;2024-01-15T10:44:30;6.90;;;2.70;;
7661;SDS011;30314;48.184;11.510;2024-01-15T10:46:57;10.93;;;3.33;;
7661;SDS011;30314;48.184;11.510;2024-01-15T10:49:24;6.90;;;3.30;;
7661;SDS011;30314;48.184;11.510;2024-01-15T10:51:59;7.00;;;3.50;;
7661;SDS011;30314;48.184;11.510;2024-01-15T10:54:27;6.40;;;2.50;;
7661;SDS011;30314;48.184;11.510;2024-01-15T10:56:58;8.20;;;2.70;;
7661;SDS011;30314;48.184;11.510;2024-01-15T10:59:24;5.00;;;2.53;;
7661;SDS011;30314;48.184;11.510;2024-01-15T11:01:51;8.43;;;3.50;;
7661;SDS011;30314;48.184;11.510;2024-01-15T11:04:21;8.83;;;3.80;;
7661;SDS011;30314;48.184;11.510;2024-01-15T11:06:50;5.87;;;3.20;;
7661;SDS011;30314;48.184;11.510;2024-01-15T11:09:18;10.03;;;3.20;;
7661;SDS011;30314;48.184;11.510;2024-01-15T11:11:45;6.83;;;3.03;;
7661;SDS011;30314;48.184;11.510;2024-01-15T11:17:05;9.87;;;4.07;;
7661;SDS011;30314;48.184;11.510;2024-01-15T11:22:09;9.77;;;4.13;;
7661;SDS011;30314;48.184;11.510;2024-01-15T11:24:39;8.57;;;3.40;;
7661;SDS011;30314;48.184;11.510;2024-01-15T11:27:07;8.27;;;4.17;;
7661;SDS011;30314;48.184;11.510;2024-01-15T11:29:35;11.17;;;3.77;;
7661;SDS011;30314;48.184;11.510;2024-01-15T11:32:03;8.30;;;3.83;;
7661;SDS011;30314;48.184;11.510;2024-01-15T11:37:21;8.53;;;3.90;;
7661;SDS011;30314;48.184;11.510;2024-01-15T11:39:53;8.83;;;3.57;;
7661;SDS011;30314;48.184;11.510;2024-01-15T11:42:21;6.90;;;3.93;;
7661;SDS011;30314;48.184;11.510;2024-01-15T11:44:49;6.60;;;3.17;;
7661;SDS011;30314;48.184;11.510;2024-01-15T11:47:16;6.40;;;2.53;;
7661;SDS011;30314;48.184;11.510;2024-01-15T11:50:07;7.90;;;3.47;;
7661;SDS011;30314;48.184;11.510;2024-01-15T11:52:36;6.80;;;2.97;;
7661;SDS011;30314;48.184;11.510;2024-01-15T11:57:52;8.00;;;4.20;;
7661;SDS011;30314;48.184;11.510;2024-01-15T12:00:21;6.53;;;2.37;;
7661;SDS011;30314;48.184;11.510;2024-01-15T12:02:49;10.90;;;3.50;;
7661;SDS011;30314;48.184;11.510;2024-01-15T12:05:17;6.10;;;2.97;;
7661;SDS011;30314;48.184;11.510;2024-01-15T12:07:46;7.77;;;3.53;;
7661;SDS011;30314;48.184;11.510;2024-01-15T12:10:14;5.47;;;2.57;;
7661;SDS011;30314;48.184;11.510;2024-01-15T12:15:26;6.33;;;2.23;;
7661;SDS011;30314;48.184;11.510;2024-01-15T12:17:58;5.50;;;2.70;;
7661;SDS011;30314;48.184;11.510;2024-01-15T12:20:26;6.57;;;3.50;;
7661;SDS011;30314;48.184;11.510;2024-01-15T12:22:53;5.33;;;2.60;;
7661;SDS011;30314;48.184;11.510;2024-01-15T12:25:28;7.20;;;2.97;;
7661;SDS011;30314;48.184;11.510;2024-01-15T12:27:56;5.97;;;2.67;;
7661;SDS011;30314;48.184;11.510;2024-01-15T12:30:23;4.67;;;2.00;;
7661;SDS011;30314;48.184;11.510;2024-01-15T12:32:50;3.83;;;2.13;;
7661;SDS011;30314;48.184;11.510;2024-01-15T12:35:17;4.53;;;2.60;;
7661;SDS011;30314;48.184;11.510;2024-01-15T12:37:43;4.33;;;2.07;;
7661;SDS011;30314;48.184;11.510;2024-01-15T12:40:12;5.80;;;1.80;;
7661;SDS011;30314;48.184;11.510;2024-01-15T12:42:40;3.23;;;1.53;;
7661;SDS011;30314;48.184;11.510;2024-01-15T12:45:07;5.07;;;2.27;;
7661;SDS011;30314;48.184;11.510;2024-01-15T12:47:34;3.23;;;1.73;;
7661;SDS011;30314;48.184;11.510;2024-01-15T12:50:05;4.53;;;1.93;;
7661;SDS011;30314;48.184;11.510;2024-01-15T12:52:44;4.00;;;2.63;;
7661;SDS011;30314;48.184;11.510;2024-01-15T12:55:10;4.30;;;2.00;;
7661;SDS011;30314;48.184;11.510;2024-01-15T12:57:37;3.10;;;1.80;;
7661;SDS011;30314;48.184;11.510;2024-01-15T13:00:04;4.60;;;2.00;;
7661;SDS011;30314;48.184;11.510;2024-01-15T13:02:33;2.87;;;1.53;;
7661;SDS011;30314;48.184;11.510;2024-01-15T13:05:00;5.33;;;2.53;;
7661;SDS011;30314;48.184;11.510;2024-01-15T13:07:27;6.17;;;2.43;;
7661;SDS011;30314;48.184;11.510;2024-01-15T13:09:54;4.93;;;2.20;;
7661;SDS011;30314;48.184;11.510;2024-01-15T13:12:20;4.73;;;2.30;;
7661;SDS011;30314;48.184;11.510;2024-01-15T13:14:48;9.63;;;2.40;;
7661;SDS011;30314;48.184;11.510;2024-01-15T13:17:14;5.70;;;2.67;;
7661;SDS011;30314;48.184;11.510;2024-01-15T13:19:41;8.60;;;2.50;;
7661;SDS011;30314;48.184;11.510;2024-01-15T13:22:08;4.67;;;2.50;;
7661;SDS011;30314;48.184;11.510;2024-01-15T13:24:35;6.53;;;3.23;;
7661;SDS011;30314;48.184;11.510;2024-01-15T13:27:02;4.93;;;2.60;;
7661;SDS011;30314;48.184;11.510;2024-01-15T13:29:31;6.47;;;2.70;;
7661;SDS011;30314;48.184;11.510;2024-01-15T13:31:58;8.13;;;3.40;;
7661;SDS011;30314;48.184;11.510;2024-01-15T13:34:24;5.77;;;3.07;;
7661;SDS011;30314;48.184;11.510;2024-01-15T13:36:51;9.20;;;4.17;;
7661;SDS011;30314;48.184;11.510;2024-01-15T13:39:20;7.47;;;3.37;;
7661;SDS011;30314;48.184;11.510;2024-01-15T13:41:47;4.40;;;2.63;;
7661;SDS011;30314;48.184;11.510;2024-01-15T13:44:13;7.03;;;3.53;;
7661;SDS011;30314;48.184;11.510;2024-01-15T13:46:40;8.83;;;3.30;;
7661;SDS011;30314;48.184;11.510;2024-01-15T13:49:06;4.33;;;2.30;;
7661;SDS011;30314;48.184;11.510;2024-01-15T13:51:33;5.83;;;2.60;;
7661;SDS011;30314;48.184;11.510;2024-01-15T13:54:01;6.73;;;2.90;;
7661;SDS011;30314;48.184;11.510;2024-01-15T13:56:27;6.37;;;3.37;;
7661;SDS011;30314;48.184;11.510;2024-01-15T13:58:58;7.57;;;3.40;;
7661;SDS011;30314;48.184;11.510;2024-01-15T14:01:26;5.73;;;3.07;;
7661;SDS011;30314;48.184;11.510;2024-01-15T14:03:54;5.70;;;2.87;;
7661;SDS011;30314;48.184;11.510;2024-01-15T14:06:20;8.00;;;3.70;;
7661;SDS011;30314;48.184;11.510;2024-01-15T14:08:47;7.87;;;3.20;;
7661;SDS011;30314;48.184;11.510;2024-01-15T14:11:13;5.10;;;3.63;;
7661;SDS011;30314;48.184;11.510;2024-01-15T14:13:40;9.40;;;4.03;;
7661;SDS011;30314;48.184;11.510;2024-01-15T14:16:07;8.40;;;3.87;;
7661;SDS011;30314;48.184;11.510;2024-01-15T14:18:33;8.00;;;3.50;;
7661;SDS011;30314;48.184;11.510;2024-01-15T14:21:00;6.90;;;3.97;;
7661;SDS011;30314;48.184;11.510;2024-01-15T14:23:27;7.03;;;3.53;;
7661;SDS011;30314;48.184;11.510;2024-01-15T14:25:53;6.50;;;3.67;;
7661;SDS011;30314;48.184;11.510;2024-01-15T14:28:20;6.30;;;3.40;;
7661;SDS011;30314;48.184;11.510;2024-01-15T14:30:46;8.83;;;3.53;;
7661;SDS011;30314;48.184;11.510;2024-01-15T14:33:13;7.60;;;3.30;;
7661;SDS011;30314;48.184;11.510;2024-01-15T14:35:40;11.10;;;3.43;;
7661;SDS011;30314;48.184;11.510;2024-01-15T14:38:06;7.53;;;3.50;;
7661;SDS011;30314;48.184;11.510;2024-01-15T14:40:34;8.90;;;3.07;;
7661;SDS011;30314;48.184;11.510;2024-01-15T14:43:02;4.37;;;2.67;;
7661;SDS011;30314;48.184;11.510;2024-01-15T14:45:29;6.50;;;3.23;;
7661;SDS011;30314;48.184;11.510;2024-01-15T14:47:56;6.67;;;3.17;;
7661;SDS011;30314;48.184;11.510;2024-01-15T14:50:24;5.90;;;2.97;;
7661;SDS011;30314;48.184;11.510;2024-01-15T14:52:51;8.43;;;3.03;;
7661;SDS011;30314;48.184;11.510;2024-01-15T14:55:18;5.50;;;2.90;;
7661;SDS011;30314;48.184;11.510;2024-01-15T14:57:45;6.00;;;2.90;;
7661;SDS011;30314;48.184;11.510;2024-01-15T15:00:12;6.50;;;3.13;;
7661;SDS011;30314;48.184;11.510;2024-01-15T15:02:39;5.10;;;2.30;;